Nearby METAR Reports

 

K2W6 - St Marys (duke), Maryland, USA
Distance from station: ESE 19mi, 31km
Updated: Tue, 08-Oct-2019 10:12pm EDT
NOT Current
Overcast
Overcast
 Wind from NE
Wind: NE 5 mph , 7 km/h
Temperature: 63°F , 17°C
Dew Point: 46°F , 8°C
Humidity: 56%
Barometer: 30.18 inHg , 1022 hPa
Clouds: Overcast
Cloud details: Overcast 5000 ft
2019/10/09 02:12 K2W6 090212Z AUTO 04004KT OVC050 17/08 A3018 RMK AO1
KADW - Andrews Afb, Maryland, USA
Distance from station: 0 27mi, 43km
Updated: Mon, 21-Oct-2019 11:06am EDT
Partly cloudy
Partly cloudy
 Wind from calm
Wind: Calm
Temperature: 59°F , 15°C
Dew Point: 50°F , 10°C
Humidity: 72%
Barometer: 30.09 inHg , 1019 hPa
Clouds: Partly cloudy
Visibility: 10 miles , 16 km
Cloud details: Partly cloudy 1700 ft
2019/10/21 15:06 KADW 211506Z AUTO 00000KT 10SM SCT017 15/10 A3009 RMK AO2 SLP196 $
 
KNHK - Patuxent River, Maryland, USA
Distance from station: ESE 28mi, 45km
Updated: Mon, 21-Oct-2019 10:52am EDT
Mostly cloudy
Mostly cloudy
 Wind from N
Wind: N 12 mph , 19 km/h
Temperature: 61°F , 16°C
Dew Point: 52°F , 11°C
Humidity: 72%
Barometer: 30.09 inHg , 1019 hPa
Clouds: Mostly cloudy
Visibility: 10 miles , 16 km
Cloud details: Mostly cloudy 1900 ft
2019/10/21 14:52 KNHK 211452Z 36010KT 10SM BKN019 16/11 A3009 RMK AO2 SLP190 T01560111 51019
KDCA - Washington/Natl, Washington D.c., USA
Distance from station: NNW 30mi, 49km
Updated: Mon, 21-Oct-2019 11:01am EDT
Partly cloudy
Partly cloudy
 Wind from NNE
Wind: NNE 8 mph , 13 km/h
Temperature: 61°F , 16°C
Dew Point: 52°F , 11°C
Humidity: 72%
Barometer: 30.11 inHg , 1019.6 hPa
Clouds: Partly cloudy
Visibility: 10 miles , 16 km
Cloud details: Partly cloudy 2100 ft
2019/10/21 15:01 KDCA 211501Z 02007KT 10SM SCT021 16/11 A3011 RMK AO2 T01610106
 
KNUI - Webster Naval, Maryland, USA
Distance from station: SE 31mi, 49km
Updated: Mon, 21-Oct-2019 10:53am EDT
Overcast
Overcast
 Wind from NE
Wind: NE 7 mph , 11 km/h
Temperature: 63°F , 17°C
Dew Point: 52°F , 11°C
Humidity: 68%
Barometer: 30.08 inHg , 1018.6 hPa
Clouds: Overcast
Visibility: 10 miles , 16 km
Cloud details: Overcast 1900 ft
2019/10/21 14:53 KNUI 211453Z AUTO 04006KT 10SM OVC019 17/11 A3008 RMK AO2 SLP186 T01720111 51016
KNAK - Annapolis/Naval, Maryland, USA
Distance from station: NNE 44mi, 70km
Updated: Mon, 21-Oct-2019 10:54am EDT
Clear
Clear
 Wind from N
Wind: N 8 mph , 13 km/h
Temperature: 59°F , 15°C
Dew Point: 50°F , 10°C
Humidity: 72%
Barometer: 30.10 inHg , 1019.3 hPa
Clouds: Clear
Visibility: 10 miles , 16 km
2019/10/21 14:54 KNAK 211454Z AUTO 35007KT 10SM CLR 15/10 A3010 RMK AO2 SLP195 T01500100 51014